Time,TemperatureF,DewpointF,PressureIn,WindDirection,WindDirectionDegrees,WindSpeedMPH,WindSpeedGustMPH,Humidity,HourlyPrecipIn,Conditions,Clouds,dailyrainin,SoftwareType,DateUTC
2013-01-19 00:02:00,29.0,25.0,29.74,SW,225,2.0,6.0,86,0.00,,,0.03,,2013-01-19 06:02:00,
2013-01-19 00:12:00,29.0,25.0,29.74,SW,225,2.0,6.0,86,0.00,,,0.03,,2013-01-19 06:12:00,
2013-01-19 00:22:00,28.0,24.0,29.74,SW,222,3.0,5.0,86,0.00,,,0.03,,2013-01-19 06:22:00,
2013-01-19 00:32:00,27.0,24.0,29.73,SW,220,3.0,5.0,87,0.00,,,0.03,,2013-01-19 06:32:00,
2013-01-19 00:43:00,27.0,24.0,29.73,SW,220,3.0,5.0,87,0.00,,,0.03,,2013-01-19 06:43:00,
2013-01-19 00:52:00,28.0,25.0,29.74,West,277,2.0,5.0,88,0.00,,,0.03,,2013-01-19 06:52:00,
2013-01-19 01:02:00,28.0,25.0,29.74,West,259,4.0,7.0,88,0.00,,,0.03,,2013-01-19 07:02:00,
2013-01-19 01:12:00,28.0,25.0,29.74,West,259,4.0,7.0,88,0.00,,,0.03,,2013-01-19 07:12:00,
2013-01-19 01:22:00,29.0,26.0,29.74,NW,311,4.0,7.0,87,0.00,,,0.03,,2013-01-19 07:22:00,
2013-01-19 01:32:00,29.0,26.0,29.74,West,272,1.0,6.0,87,0.00,,,0.03,,2013-01-19 07:32:00,
2013-01-19 01:42:00,29.0,26.0,29.74,West,272,1.0,6.0,87,0.00,,,0.03,,2013-01-19 07:42:00,
2013-01-19 01:52:00,28.0,24.0,29.75,West,271,3.0,5.0,86,0.00,,,0.03,,2013-01-19 07:52:00,
2013-01-19 02:02:00,29.0,26.0,29.75,West,274,5.0,8.0,88,0.00,,,0.03,,2013-01-19 08:02:00,
2013-01-19 02:12:00,29.0,26.0,29.75,West,274,5.0,8.0,88,0.00,,,0.03,,2013-01-19 08:12:00,
2013-01-19 02:22:00,30.0,26.0,29.74,NW,305,2.0,7.0,86,0.00,,,0.03,,2013-01-19 08:22:00,
2013-01-19 02:32:00,30.0,26.0,29.74,West,271,3.0,6.0,86,0.00,,,0.03,,2013-01-19 08:32:00,
2013-01-19 02:43:00,30.0,26.0,29.74,West,271,3.0,6.0,86,0.00,,,0.03,,2013-01-19 08:43:00,
2013-01-19 02:52:00,30.0,26.0,29.74,WNW,294,1.0,3.0,86,0.00,,,0.03,,2013-01-19 08:52:00,
2013-01-19 03:02:00,29.0,25.0,29.73,WNW,294,0.0,2.0,86,0.00,,,0.03,,2013-01-19 09:02:00,
2013-01-19 03:12:00,29.0,25.0,29.73,WNW,294,0.0,2.0,86,0.00,,,0.03,,2013-01-19 09:12:00,
2013-01-19 03:22:00,29.0,25.0,29.72,WNW,294,0.0,0.0,86,0.00,,,0.03,,2013-01-19 09:22:00,
2013-01-19 03:32:00,29.0,26.0,29.72,WNW,294,0.0,1.0,87,0.00,,,0.03,,2013-01-19 09:32:00,
2013-01-19 03:42:00,29.0,26.0,29.72,WNW,294,0.0,1.0,87,0.00,,,0.03,,2013-01-19 09:42:00,
2013-01-19 03:52:00,29.0,26.0,29.72,SSW,213,1.0,3.0,87,0.00,,,0.03,,2013-01-19 09:52:00,
2013-01-19 04:02:00,28.0,25.0,29.71,South,184,2.0,5.0,88,0.00,,,0.03,,2013-01-19 10:02:00,
2013-01-19 04:12:00,28.0,25.0,29.71,South,184,2.0,5.0,88,0.00,,,0.03,,2013-01-19 10:12:00,
2013-01-19 04:22:00,27.0,24.0,29.71,South,181,2.0,6.0,89,0.00,,,0.03,,2013-01-19 10:22:00,
2013-01-19 04:32:00,28.0,25.0,29.70,South,180,2.0,5.0,89,0.00,,,0.03,,2013-01-19 10:32:00,
2013-01-19 04:42:00,28.0,25.0,29.70,South,180,2.0,5.0,89,0.00,,,0.03,,2013-01-19 10:42:00,
2013-01-19 04:52:00,28.0,25.0,29.70,South,178,1.0,3.0,89,0.00,,,0.03,,2013-01-19 10:52:00,
2013-01-19 05:03:00,29.0,26.0,29.69,South,178,0.0,3.0,89,0.00,,,0.03,,2013-01-19 11:03:00,
2013-01-19 05:12:00,29.0,26.0,29.69,South,178,0.0,3.0,89,0.00,,,0.03,,2013-01-19 11:12:00,
2013-01-19 06:48:00,30.0,27.0,29.65,SSW,205,8.0,16.0,88,0.00,,,0.03,,2013-01-19 12:48:00,
2013-01-19 07:03:00,30.0,27.0,29.69,WNW,284,5.0,9.0,87,0.00,,,0.03,,2013-01-19 13:03:00,
2013-01-19 07:12:00,30.0,27.0,29.69,WNW,284,5.0,9.0,87,0.00,,,0.03,,2013-01-19 13:12:00,
2013-01-19 07:22:00,30.0,27.0,29.66,SSW,205,3.0,7.0,87,0.00,,,0.03,,2013-01-19 13:22:00,
2013-01-19 07:33:00,29.0,26.0,29.66,SSW,192,0.0,3.0,87,0.00,,,0.03,,2013-01-19 13:33:00,
2013-01-19 07:42:00,29.0,26.0,29.66,SSW,192,0.0,3.0,87,0.00,,,0.03,,2013-01-19 13:42:00,
2013-01-19 07:52:00,29.0,26.0,29.65,SE,146,2.0,8.0,89,0.00,,,0.03,,2013-01-19 13:52:00,
2013-01-19 08:02:00,29.0,26.0,29.63,South,171,2.0,5.0,88,0.00,,,0.03,,2013-01-19 14:02:00,
2013-01-19 08:12:00,29.0,26.0,29.63,South,171,2.0,5.0,88,0.00,,,0.03,,2013-01-19 14:12:00,
2013-01-19 08:23:00,28.0,25.0,29.63,South,189,4.0,6.0,89,0.00,,,0.03,,2013-01-19 14:23:00,
2013-01-19 08:34:00,28.0,25.0,29.62,South,189,5.0,7.0,89,0.00,,,0.03,,2013-01-19 14:34:00,
2013-01-19 08:43:00,28.0,25.0,29.62,South,189,5.0,7.0,89,0.00,,,0.03,,2013-01-19 14:43:00,
2013-01-19 08:53:00,28.0,25.0,29.62,SSW,207,4.0,7.0,90,0.00,,,0.03,,2013-01-19 14:53:00,
2013-01-19 09:03:00,28.0,25.0,29.62,SSW,207,4.0,7.0,90,0.00,,,0.03,,2013-01-19 15:03:00,
2013-01-19 09:12:00,28.0,25.0,29.62,SSW,207,4.0,7.0,90,0.00,,,0.03,,2013-01-19 15:12:00,
2013-01-19 09:23:00,30.0,27.0,29.64,SW,232,4.0,8.0,88,0.00,,,0.03,,2013-01-19 15:23:00,
2013-01-19 09:33:00,30.0,27.0,29.64,SW,223,5.0,8.0,88,0.00,,,0.03,,2013-01-19 15:33:00,
2013-01-19 09:43:00,30.0,27.0,29.64,SW,223,5.0,8.0,88,0.00,,,0.03,,2013-01-19 15:43:00,
2013-01-19 09:53:00,30.0,27.0,29.64,SW,232,5.0,9.0,88,0.00,,,0.03,,2013-01-19 15:53:00,
2013-01-19 10:03:00,31.0,28.0,29.64,SW,214,5.0,8.0,87,0.00,,,0.03,,2013-01-19 16:03:00,
2013-01-19 10:13:00,31.0,28.0,29.64,SW,214,5.0,8.0,87,0.00,,,0.03,,2013-01-19 16:13:00,
2013-01-19 10:23:00,32.0,28.0,29.64,SSW,209,5.0,10.0,86,0.00,,,0.03,,2013-01-19 16:23:00,
2013-01-19 10:33:00,32.0,28.0,29.63,WSW,240,6.0,11.0,86,0.00,,,0.03,,2013-01-19 16:33:00,
2013-01-19 10:43:00,32.0,28.0,29.63,WSW,240,6.0,11.0,86,0.00,,,0.03,,2013-01-19 16:43:00,
2013-01-19 10:53:00,33.0,29.0,29.63,WSW,242,6.0,11.0,85,0.00,,,0.03,,2013-01-19 16:53:00,
2013-01-19 11:03:00,33.0,29.0,29.63,WSW,242,6.0,11.0,85,0.00,,,0.03,,2013-01-19 17:03:00,
2013-01-19 11:19:00,33.0,29.0,29.63,WSW,242,6.0,11.0,85,0.00,,,0.03,,2013-01-19 17:19:00,
2013-01-19 11:28:00,34.0,29.0,29.62,WSW,239,6.0,10.0,83,0.00,,,0.03,,2013-01-19 17:28:00,
2013-01-19 11:35:00,35.0,30.0,29.61,SW,225,5.0,10.0,82,0.00,,,0.03,,2013-01-19 17:35:00,
2013-01-19 11:47:00,35.0,30.0,29.61,SW,225,5.0,10.0,82,0.00,,,0.03,,2013-01-19 17:47:00,
2013-01-19 12:14:00,37.0,30.0,29.60,West,271,10.0,15.0,77,0.00,,,0.03,,2013-01-19 18:14:00,
2013-01-19 12:25:00,38.0,31.0,29.60,West,271,11.0,17.0,75,0.00,,,0.03,,2013-01-19 18:25:00,
2013-01-19 12:35:00,39.0,31.0,29.60,WNW,296,13.0,20.0,73,0.00,,,0.03,,2013-01-19 18:35:00,
2013-01-19 12:45:00,39.0,31.0,29.60,WNW,296,13.0,20.0,73,0.00,,,0.03,,2013-01-19 18:45:00,
2013-01-19 12:55:00,37.0,30.0,29.59,West,272,14.0,22.0,75,0.00,,,0.03,,2013-01-19 18:55:00,
2013-01-19 13:08:00,36.0,29.0,29.59,West,267,11.0,20.0,77,0.00,,,0.03,,2013-01-19 19:08:00,
2013-01-19 13:20:00,36.0,29.0,29.59,West,267,11.0,20.0,77,0.00,,,0.03,,2013-01-19 19:20:00,
2013-01-19 13:28:00,36.0,29.0,29.59,WNW,296,15.0,19.0,77,0.00,,,0.03,,2013-01-19 19:28:00,
2013-01-19 13:38:00,36.0,29.0,29.59,WNW,294,15.0,21.0,77,0.00,,,0.01,,2013-01-19 19:38:00,
2013-01-19 13:45:00,36.0,29.0,29.59,WNW,294,15.0,21.0,77,0.00,,,0.01,,2013-01-19 19:45:00,
2013-01-19 13:54:00,35.0,29.0,29.60,WNW,292,17.0,28.0,77,0.00,,,0.01,,2013-01-19 19:54:00,
2013-01-19 14:09:00,35.0,29.0,29.60,NW,311,17.0,23.0,77,0.00,,,0.01,,2013-01-19 20:09:00,
2013-01-19 14:19:00,35.0,29.0,29.60,NW,311,17.0,23.0,77,0.00,,,0.01,,2013-01-19 20:19:00,
2013-01-19 14:25:00,35.0,29.0,29.60,WNW,298,15.0,23.0,77,0.00,,,0.01,,2013-01-19 20:25:00,
2013-01-19 14:47:00,34.0,28.0,29.61,West,280,19.0,29.0,78,0.00,,,0.00,,2013-01-19 20:47:00,
2013-01-19 14:54:00,34.0,28.0,29.61,WNW,286,12.0,22.0,78,0.00,,,0.00,,2013-01-19 20:54:00,
2013-01-19 15:06:00,35.0,29.0,29.61,WNW,300,11.0,19.0,78,0.00,,,0.00,,2013-01-19 21:06:00,
2013-01-19 15:14:00,35.0,29.0,29.61,WNW,300,11.0,19.0,78,0.00,,,0.00,,2013-01-19 21:14:00,
2013-01-19 15:25:00,35.0,29.0,29.60,West,275,13.0,19.0,78,0.00,,,0.00,,2013-01-19 21:25:00,
2013-01-19 15:50:00,35.0,29.0,29.59,WSW,257,12.0,20.0,79,0.00,,,0.00,,2013-01-19 21:50:00,
2013-01-19 15:56:00,35.0,29.0,29.59,WSW,257,12.0,20.0,79,0.00,,,0.00,,2013-01-19 21:56:00,
2013-01-19 16:12:00,34.0,29.0,29.59,WSW,240,12.0,19.0,82,0.00,,,0.00,,2013-01-19 22:12:00,
2013-01-19 16:18:00,34.0,29.0,29.59,WSW,240,12.0,19.0,82,0.00,,,0.00,,2013-01-19 22:18:00,
2013-01-19 16:26:00,33.0,30.0,29.59,WNW,285,12.0,21.0,89,0.00,,,0.00,,2013-01-19 22:26:00,
2013-01-19 16:34:00,33.0,29.0,29.59,WNW,290,19.0,26.0,86,0.00,,,0.00,,2013-01-19 22:34:00,
2013-01-19 16:54:00,33.0,26.0,29.60,West,280,17.0,36.0,74,0.00,,,0.00,,2013-01-19 22:54:00,
2013-01-19 17:13:00,31.0,22.0,29.62,West,275,33.0,43.0,69,0.00,,,0.00,,2013-01-19 23:13:00,
2013-01-19 17:34:00,22.0,11.0,29.68,WNW,303,30.0,42.0,62,0.00,,,0.00,,2013-01-19 23:34:00,
2013-01-19 17:45:00,22.0,11.0,29.68,WNW,303,30.0,42.0,62,0.00,,,0.00,,2013-01-19 23:45:00,
2013-01-19 17:58:00,19.0,9.0,29.71,WNW,292,23.0,42.0,63,0.00,,,0.00,,2013-01-19 23:58:00,
2013-01-19 18:08:00,17.0,7.0,29.73,WNW,297,26.0,42.0,63,0.00,,,0.00,,2013-01-20 00:08:00,
2013-01-19 18:15:00,17.0,7.0,29.73,WNW,297,26.0,42.0,63,0.00,,,0.00,,2013-01-20 00:15:00,
2013-01-19 18:25:00,15.0,4.0,29.75,WNW,290,27.0,41.0,62,0.00,,,0.00,,2013-01-20 00:25:00,
2013-01-19 18:35:00,14.0,4.0,29.77,WNW,302,23.0,40.0,63,0.00,,,0.00,,2013-01-20 00:35:00,
2013-01-19 18:45:00,14.0,4.0,29.77,WNW,302,23.0,40.0,63,0.00,,,0.00,,2013-01-20 00:45:00,
2013-01-19 18:53:00,13.0,2.0,29.79,NW,311,28.0,42.0,62,0.00,,,0.00,,2013-01-20 00:53:00,
2013-01-19 19:04:00,12.0,2.0,29.81,NW,313,23.0,43.0,63,0.00,,,0.00,,2013-01-20 01:04:00,
2013-01-19 19:19:00,12.0,2.0,29.81,NW,313,23.0,43.0,63,0.00,,,0.00,,2013-01-20 01:19:00,
2013-01-19 19:25:00,11.0,2.0,29.83,WNW,297,19.0,46.0,66,0.00,,,0.00,,2013-01-20 01:25:00,
2013-01-19 19:36:00,11.0,2.0,29.85,NW,314,18.0,34.0,65,0.00,,,0.00,,2013-01-20 01:36:00,
2013-01-19 19:47:00,11.0,2.0,29.85,NW,314,18.0,34.0,65,0.00,,,0.00,,2013-01-20 01:47:00,
2013-01-19 19:57:00,10.0,2.0,29.87,WNW,303,23.0,36.0,68,0.00,,,0.00,,2013-01-20 01:57:00,
2013-01-19 20:07:00,9.0,-1.0,29.89,NW,321,19.0,30.0,62,0.00,,,0.00,,2013-01-20 02:07:00,
2013-01-19 20:14:00,9.0,-1.0,29.89,NW,321,19.0,30.0,62,0.00,,,0.00,,2013-01-20 02:14:00,
2013-01-19 20:25:00,9.0,-2.0,29.90,NNW,329,22.0,40.0,61,0.00,,,0.00,,2013-01-20 02:25:00,
2013-01-19 20:35:00,8.0,-2.0,29.91,NNW,331,16.0,27.0,63,0.00,,,0.00,,2013-01-20 02:35:00,
2013-01-19 20:44:00,8.0,-2.0,29.91,NNW,331,16.0,27.0,63,0.00,,,0.00,,2013-01-20 02:44:00,
2013-01-19 20:55:00,7.0,-4.0,29.92,NW,311,24.0,33.0,60,0.00,,,0.00,,2013-01-20 02:55:00,
2013-01-19 21:08:00,6.0,-5.0,29.93,NW,319,18.0,31.0,61,0.00,,,0.00,,2013-01-20 03:08:00,
2013-01-19 21:14:00,6.0,-5.0,29.93,NW,319,18.0,31.0,61,0.00,,,0.00,,2013-01-20 03:14:00,
2013-01-19 21:24:00,6.0,-4.0,29.95,NW,319,21.0,32.0,64,0.00,,,0.00,,2013-01-20 03:24:00,
2013-01-19 21:45:00,6.0,-3.0,29.97,WNW,301,12.0,28.0,67,0.00,,,0.00,,2013-01-20 03:45:00,
2013-01-19 21:54:00,5.0,-4.0,29.97,NNW,340,16.0,32.0,65,0.00,,,0.00,,2013-01-20 03:54:00,
2013-01-19 22:05:00,5.0,-4.0,29.99,WNW,298,18.0,32.0,64,0.00,,,0.00,,2013-01-20 04:05:00,
2013-01-19 22:15:00,5.0,-4.0,29.99,WNW,298,18.0,32.0,64,0.00,,,0.00,,2013-01-20 04:15:00,
2013-01-19 22:25:00,5.0,-4.0,29.99,NNW,327,17.0,31.0,65,0.00,,,0.00,,2013-01-20 04:25:00,
2013-01-19 22:35:00,4.0,-4.0,30.01,NW,309,14.0,27.0,67,0.00,,,0.00,,2013-01-20 04:35:00,
2013-01-19 22:44:00,4.0,-4.0,30.01,NW,309,14.0,27.0,67,0.00,,,0.00,,2013-01-20 04:44:00,
2013-01-19 22:54:00,4.0,-4.0,30.01,NW,311,21.0,29.0,69,0.00,,,0.00,,2013-01-20 04:54:00,
2013-01-19 23:04:00,4.0,-4.0,30.02,NW,321,17.0,27.0,70,0.00,,,0.00,,2013-01-20 05:04:00,
2013-01-19 23:12:00,4.0,-4.0,30.02,NW,321,17.0,27.0,70,0.00,,,0.00,,2013-01-20 05:12:00,
2013-01-19 23:22:00,4.0,-4.0,30.03,NW,325,16.0,25.0,70,0.00,,,0.00,,2013-01-20 05:22:00,
2013-01-19 23:32:00,4.0,-3.0,30.04,WNW,299,14.0,27.0,71,0.00,,,0.00,,2013-01-20 05:32:00,
2013-01-19 23:42:00,4.0,-3.0,30.04,WNW,299,14.0,27.0,71,0.00,,,0.00,,2013-01-20 05:42:00,
2013-01-19 23:53:00,4.0,-3.0,30.05,NW,321,14.0,23.0,72,0.00,,,0.00,,2013-01-20 05:53:00,